Time;durP1;ratioP1;P1;durP2;ratioP2;P2;SDS_P1;SDS_P2;PMS_P1;PMS_P2;Temp;Humidity;BMP_temperature;BMP_pressure;BME280_temperature;BME280_humidity;BME280_pressure;Samples;Min_cycle;Max_cycle;Signal;HPM_P1;HPM_P2
2021/12/07 00:01:58;;;;;;;17.15;2.75;;;4.90;99.90;;;;;;6219260;23;20020;-93
2021/12/07 00:04:26;;;;;;;6.15;1.65;;;5.00;99.90;;;;;;6192891;23;20024;-91
2021/12/07 00:06:53;;;;;;;18.40;1.45;;;4.90;99.90;;;;;;6219771;23;20020;-93
2021/12/07 00:09:21;;;;;;;3.20;1.30;;;5.00;99.90;;;;;;6218203;23;20024;-92
2021/12/07 00:11:50;;;;;;;8.00;1.00;;;5.00;99.90;;;;;;6219292;23;20030;-92
2021/12/07 00:14:32;;;;;;;5.68;1.20;;;5.00;99.90;;;;;;6216839;23;20314;-91
2021/12/07 00:17:02;;;;;;;5.85;1.15;;;5.00;99.90;;;;;;6217828;23;20087;-93
2021/12/07 00:19:30;;;;;;;5.53;1.00;;;4.90;99.90;;;;;;6218254;23;20020;-88
2021/12/07 00:21:57;;;;;;;9.05;1.23;;;4.90;99.90;;;;;;6216960;23;20016;-91
2021/12/07 00:24:25;;;;;;;5.38;1.33;;;4.90;99.90;;;;;;6217707;23;20016;-93
2021/12/07 00:26:56;;;;;;;11.15;2.97;;;4.80;99.90;;;;;;6217318;23;20032;-88
2021/12/07 00:29:24;;;;;;;9.82;1.55;;;4.80;99.90;;;;;;6217921;23;20024;-90
2021/12/07 00:32:06;;;;;;;7.55;1.65;;;4.90;99.90;;;;;;6218394;23;20055;-91
2021/12/07 00:37:02;;;;;;;15.02;1.55;;;4.90;99.90;;;;;;6215731;23;20020;-92
2021/12/07 00:39:31;;;;;;;6.57;1.38;;;5.00;99.90;;;;;;6217327;23;20013;-92
2021/12/07 00:41:59;;;;;;;8.15;1.95;;;4.80;99.90;;;;;;6218162;23;20040;-92
2021/12/07 00:44:26;;;;;;;10.55;1.10;;;4.90;99.90;;;;;;6193020;23;20023;-92
2021/12/07 00:46:55;;;;;;;12.00;2.70;;;4.90;99.90;;;;;;6217582;23;20024;-94
2021/12/07 00:49:22;;;;;;;11.23;1.65;;;5.00;99.90;;;;;;6217627;23;20039;-93
2021/12/07 00:51:54;;;;;;;6.15;1.80;;;4.90;99.90;;;;;;6191479;23;20025;-95
2021/12/07 00:54:21;;;;;;;13.95;1.52;;;5.10;99.90;;;;;;6216423;23;20016;-91
2021/12/07 00:56:48;;;;;;;12.13;1.45;;;5.10;99.90;;;;;;6216664;23;20017;-93
2021/12/07 00:59:16;;;;;;;14.90;1.25;;;5.00;99.90;;;;;;6216896;23;20032;-90
2021/12/07 01:01:47;;;;;;;7.95;1.13;;;5.00;99.90;;;;;;6216970;23;20044;-90
2021/12/07 01:04:18;;;;;;;14.13;1.52;;;5.00;99.90;;;;;;6193061;23;20020;-92
2021/12/07 01:07:01;;;;;;;11.82;1.38;;;5.00;99.90;;;;;;6192819;23;20024;-91
2021/12/07 01:24:40;;;;;;;;;;;5.00;99.90;;;;;;6218260;23;20038;-92
2021/12/07 01:26:27;;;;;;;5.22;1.05;;;5.00;99.90;;;;;;6217142;23;20017;-91
2021/12/07 01:29:00;;;;;;;9.80;1.25;;;5.10;99.90;;;;;;6192783;23;20020;-92
2021/12/07 01:31:35;;;;;;;8.88;1.88;;;5.10;99.90;;;;;;6216595;23;20025;-91
2021/12/07 01:52:53;;;;;;;14.60;1.65;;;5.20;99.90;;;;;;6217230;23;20452;-96
2021/12/07 01:59:32;;;;;;;10.60;1.20;;;5.20;99.90;;;;;;6216617;23;20506;-94
2021/12/07 02:01:07;;;;;;;14.07;1.40;;;5.10;99.90;;;;;;6215872;23;20456;-93
2021/12/07 02:03:42;;;;;;;10.90;1.40;;;5.10;99.90;;;;;;6217098;23;20051;-93
2021/12/07 02:06:12;;;;;;;7.10;0.88;;;5.10;99.90;;;;;;6217426;23;20044;-90
2021/12/07 02:08:41;;;;;;;7.95;1.83;;;5.10;99.90;;;;;;6216257;23;20059;-91
2021/12/07 02:11:13;;;;;;;14.07;1.48;;;5.20;99.90;;;;;;6216474;23;20020;-92
2021/12/07 02:16:15;;;;;;;8.32;1.35;;;5.20;99.90;;;;;;6217987;23;20016;-92
2021/12/07 02:18:43;;;;;;;7.35;1.27;;;5.30;99.90;;;;;;6216800;23;20353;-91
2021/12/07 02:21:16;;;;;;;3.22;1.10;;;5.30;99.90;;;;;;6216491;23;20021;-92
2021/12/07 02:24:00;;;;;;;4.78;0.88;;;5.30;99.90;;;;;;6216719;23;20367;-91
2021/12/07 02:26:28;;;;;;;5.07;1.38;;;5.20;99.90;;;;;;6217479;23;20036;-94
2021/12/07 02:28:58;;;;;;;6.03;1.20;;;5.20;99.90;;;;;;6193129;23;20048;-91
2021/12/07 02:31:26;;;;;;;7.45;1.17;;;5.20;99.90;;;;;;6195905;23;20047;-90
2021/12/07 02:33:54;;;;;;;11.07;1.30;;;5.20;99.90;;;;;;6220775;23;20016;-91
2021/12/07 02:36:28;;;;;;;12.07;1.23;;;5.30;99.90;;;;;;6222348;23;20440;-93
2021/12/07 02:39:00;;;;;;;3.92;1.77;;;5.30;99.90;;;;;;6219430;23;20020;-95
2021/12/07 02:41:34;;;;;;;3.80;0.85;;;5.30;99.90;;;;;;6217054;23;20020;-93
2021/12/07 02:44:07;;;;;;;6.85;0.85;;;5.20;99.90;;;;;;6216660;23;20021;-90
2021/12/07 02:46:35;;;;;;;12.63;0.80;;;5.20;99.90;;;;;;6219408;23;20017;-91
2021/12/07 02:49:07;;;;;;;8.52;1.08;;;5.20;99.90;;;;;;6219256;23;20023;-96
2021/12/07 02:51:35;;;;;;;6.68;1.25;;;5.20;99.90;;;;;;6192041;23;20452;-95
2021/12/07 02:54:08;;;;;;;12.70;1.60;;;5.20;99.90;;;;;;6216455;23;20027;-91
2021/12/07 02:56:35;;;;;;;5.32;1.48;;;5.30;99.90;;;;;;6218470;23;20092;-95
2021/12/07 02:59:05;;;;;;;9.82;0.95;;;5.30;99.90;;;;;;6216673;23;20100;-91
2021/12/07 03:01:42;;;;;;;3.65;0.85;;;5.20;99.90;;;;;;6217324;23;20020;-89
2021/12/07 03:04:16;;;;;;;2.95;0.90;;;5.30;99.90;;;;;;6218070;23;20020;-93
2021/12/07 03:07:05;;;;;;;12.40;1.23;;;5.30;99.90;;;;;;6217918;23;20016;-94
2021/12/07 03:26:25;;;;;;;2.88;0.93;;;5.30;99.90;;;;;;6217488;23;20449;-92
2021/12/07 03:28:54;;;;;;;10.32;0.90;;;5.30;99.90;;;;;;6192319;23;20031;-94
2021/12/07 03:31:26;;;;;;;6.25;0.90;;;5.30;99.90;;;;;;6193415;23;20016;-90
2021/12/07 03:33:55;;;;;;;7.45;0.60;;;5.30;99.90;;;;;;6193830;23;20021;-92
2021/12/07 03:36:26;;;;;;;8.23;1.50;;;5.30;99.90;;;;;;6217929;23;20082;-90
2021/12/07 03:39:01;;;;;;;7.20;0.82;;;5.30;99.90;;;;;;6217135;23;20333;-92
2021/12/07 03:41:32;;;;;;;5.13;1.60;;;5.30;99.90;;;;;;6192969;23;20024;-91
2021/12/07 03:44:03;;;;;;;6.85;0.80;;;5.20;99.90;;;;;;6217143;23;20055;-91
2021/12/07 03:46:36;;;;;;;4.15;0.60;;;5.20;99.90;;;;;;6217437;23;20352;-90
2021/12/07 03:49:03;;;;;;;4.70;1.52;;;5.20;99.90;;;;;;6192859;23;20096;-91
2021/12/07 03:51:30;;;;;;;4.65;1.13;;;5.20;99.90;;;;;;6216855;23;20025;-95
2021/12/07 03:53:58;;;;;;;10.85;1.30;;;5.20;99.90;;;;;;6217685;23;20530;-90
2021/12/07 03:56:25;;;;;;;7.13;1.02;;;5.30;99.90;;;;;;6218142;23;20020;-94
2021/12/07 03:58:52;;;;;;;5.63;0.70;;;5.30;99.90;;;;;;6217037;23;20020;-93
2021/12/07 04:01:23;;;;;;;8.48;0.95;;;5.30;99.90;;;;;;6217260;23;20017;-91
2021/12/07 04:03:53;;;;;;;8.00;1.00;;;5.30;99.90;;;;;;6219137;23;20480;-93
2021/12/07 04:06:21;;;;;;;7.78;1.02;;;5.30;99.90;;;;;;6216851;23;20095;-93
2021/12/07 04:09:00;;;;;;;7.47;1.55;;;5.30;99.90;;;;;;6216581;23;20352;-94
2021/12/07 04:11:30;;;;;;;12.95;1.27;;;5.40;99.90;;;;;;6218029;23;20369;-93
2021/12/07 04:13:57;;;;;;;10.90;1.30;;;5.40;99.90;;;;;;6191889;23;20020;-91
2021/12/07 04:16:31;;;;;;;4.10;1.73;;;5.40;99.90;;;;;;6193185;23;20016;-92
2021/12/07 04:19:00;;;;;;;6.47;1.40;;;5.40;99.90;;;;;;6217444;23;20396;-91
2021/12/07 04:21:27;;;;;;;4.53;0.60;;;5.30;99.90;;;;;;6217078;23;20017;-92
2021/12/07 04:23:54;;;;;;;13.57;2.25;;;5.40;99.90;;;;;;6192819;23;20044;-92
2021/12/07 04:26:21;;;;;;;12.50;1.25;;;5.30;99.90;;;;;;6217485;23;20031;-93
2021/12/07 04:28:48;;;;;;;10.82;1.30;;;5.40;99.90;;;;;;6218593;23;20048;-91
2021/12/07 04:31:16;;;;;;;8.48;1.52;;;5.40;99.90;;;;;;6219493;23;20027;-93
2021/12/07 04:33:44;;;;;;;8.55;1.33;;;5.40;99.90;;;;;;6219321;23;20017;-91
2021/12/07 04:36:11;;;;;;;9.35;1.50;;;5.40;99.90;;;;;;6192456;23;20020;-94
2021/12/07 04:38:39;;;;;;;6.57;1.63;;;5.40;99.90;;;;;;6217442;23;20024;-93
2021/12/07 04:41:07;;;;;;;4.90;0.75;;;5.40;99.90;;;;;;6216772;23;20020;-93
2021/12/07 04:43:38;;;;;;;10.45;1.38;;;5.40;99.90;;;;;;6192653;23;20046;-93
2021/12/07 04:46:37;;;;;;;7.88;1.40;;;5.40;99.90;;;;;;6217867;23;20013;-91
2021/12/07 05:00:22;;;;;;;7.63;1.30;;;5.40;99.90;;;;;;6219049;23;20436;-91
2021/12/07 05:03:14;;;;;;;4.32;0.80;;;5.30;99.90;;;;;;6218171;23;20030;-94
2021/12/07 05:09:02;;;;;;;3.88;0.77;;;5.40;99.90;;;;;;6217574;23;20100;-93
2021/12/07 05:14:45;;;;;;;7.57;0.90;;;5.30;99.90;;;;;;6221028;23;20020;-91
2021/12/07 05:25:38;;;;;;;5.65;0.88;;;5.30;99.90;;;;;;6204896;23;20341;-92
2021/12/07 05:39:42;;;;;;;4.50;1.05;;;5.40;99.90;;;;;;6217487;23;20025;-94
2021/12/07 05:42:19;;;;;;;3.88;0.93;;;5.40;99.90;;;;;;6218661;23;20024;-95
2021/12/07 05:44:54;;;;;;;8.10;1.10;;;5.40;99.90;;;;;;6217394;23;20020;-93
2021/12/07 05:47:59;;;;;;;6.25;1.00;;;5.40;99.90;;;;;;6215606;23;20080;-92
2021/12/07 05:51:05;;;;;;;8.73;1.20;;;5.40;99.90;;;;;;6216694;23;20570;-95
2021/12/07 05:53:34;;;;;;;3.40;0.90;;;5.40;99.90;;;;;;6217119;23;20071;-94
2021/12/07 05:56:07;;;;;;;5.70;2.08;;;5.40;99.90;;;;;;6216972;23;20017;-94
2021/12/07 05:58:39;;;;;;;6.60;1.35;;;5.40;99.90;;;;;;6216215;23;20021;-92
2021/12/07 06:01:25;;;;;;;8.75;1.70;;;5.40;99.90;;;;;;6217520;23;20012;-95
2021/12/07 06:03:58;;;;;;;9.23;0.98;;;5.40;99.90;;;;;;6216345;23;20021;-92
2021/12/07 06:06:29;;;;;;;8.82;0.80;;;5.40;99.90;;;;;;6216518;23;20027;-91
2021/12/07 06:08:59;;;;;;;8.30;1.08;;;5.40;99.90;;;;;;6216209;23;20016;-93
2021/12/07 06:11:29;;;;;;;10.85;1.20;;;5.40;99.90;;;;;;6216085;23;20016;-92
2021/12/07 06:14:02;;;;;;;6.75;0.85;;;5.30;99.90;;;;;;6215846;23;20063;-93
2021/12/07 06:16:35;;;;;;;5.63;0.93;;;5.40;99.90;;;;;;6192078;23;20017;-95
2021/12/07 06:19:05;;;;;;;5.38;1.27;;;5.40;99.90;;;;;;6191829;23;20017;-91
2021/12/07 06:21:33;;;;;;;10.65;1.30;;;5.40;99.90;;;;;;6215791;23;20021;-93
2021/12/07 06:24:04;;;;;;;2.75;1.65;;;5.40;99.90;;;;;;6216742;23;20091;-92
2021/12/07 06:26:34;;;;;;;12.40;2.40;;;5.50;99.90;;;;;;6191338;23;20017;-93
2021/12/07 06:29:11;;;;;;;7.60;1.23;;;5.40;99.90;;;;;;6215296;23;20020;-91
2021/12/07 06:31:48;;;;;;;7.07;1.13;;;5.40;99.90;;;;;;6216088;23;20071;-93
2021/12/07 06:34:15;;;;;;;13.63;2.65;;;5.40;99.90;;;;;;6215720;23;20017;-94
2021/12/07 06:36:50;;;;;;;8.00;1.17;;;5.40;99.90;;;;;;6215388;23;20020;-91
2021/12/07 06:39:22;;;;;;;6.53;1.80;;;5.40;99.90;;;;;;6191745;23;20333;-94
2021/12/07 06:41:52;;;;;;;7.85;1.23;;;5.40;99.90;;;;;;6217326;23;20174;-94
2021/12/07 06:44:39;;;;;;;3.70;0.85;;;5.50;99.90;;;;;;6216111;23;20025;-91
2021/12/07 06:47:14;;;;;;;4.15;1.10;;;5.40;99.90;;;;;;6192640;23;20067;-93
2021/12/07 06:49:50;;;;;;;8.70;1.35;;;5.40;99.90;;;;;;6216091;23;20008;-93
2021/12/07 06:52:21;;;;;;;3.60;1.35;;;5.40;99.90;;;;;;6218040;23;20035;-92
2021/12/07 06:55:12;;;;;;;5.60;1.63;;;5.50;99.90;;;;;;6192085;23;20016;-92
2021/12/07 06:57:44;;;;;;;7.88;1.13;;;5.50;99.90;;;;;;6191780;23;20381;-93
2021/12/07 07:00:22;;;;;;;10.95;1.17;;;5.50;99.90;;;;;;6216277;23;20069;-92
2021/12/07 07:03:20;;;;;;;6.05;1.10;;;5.40;99.90;;;;;;6194644;23;20020;-93
2021/12/07 07:06:17;;;;;;;10.05;1.70;;;5.50;99.90;;;;;;6216857;23;20016;-92
2021/12/07 07:08:50;;;;;;;5.78;1.05;;;5.40;99.90;;;;;;6215980;23;20027;-94
2021/12/07 07:11:20;;;;;;;7.32;1.27;;;5.40;99.90;;;;;;6216147;23;20024;-94
2021/12/07 07:13:50;;;;;;;9.25;1.17;;;5.40;99.90;;;;;;6215793;23;20051;-93
2021/12/07 07:16:29;;;;;;;8.43;1.30;;;5.40;99.90;;;;;;6192960;23;20012;-92
2021/12/07 07:18:58;;;;;;;7.68;1.27;;;5.40;99.90;;;;;;6191419;23;20021;-94
2021/12/07 07:21:29;;;;;;;10.07;0.90;;;5.30;99.90;;;;;;6215758;23;20043;-93
2021/12/07 07:26:54;;;;;;;9.63;1.40;;;5.30;99.90;;;;;;6209228;23;20020;-94
2021/12/07 07:29:21;;;;;;;8.05;1.33;;;5.30;99.90;;;;;;6215994;23;20075;-92
2021/12/07 07:31:49;;;;;;;10.90;0.80;;;5.30;99.90;;;;;;6190999;23;20025;-95
2021/12/07 07:34:17;;;;;;;2.55;1.35;;;5.30;99.90;;;;;;6216406;23;20103;-95
2021/12/07 07:36:58;;;;;;;8.57;1.17;;;5.20;99.90;;;;;;6191343;23;20017;-94
2021/12/07 07:39:45;;;;;;;8.02;1.13;;;5.20;99.90;;;;;;6211334;23;20027;-92
2021/12/07 07:42:20;;;;;;;5.22;0.95;;;5.20;99.90;;;;;;6215426;23;20052;-93
2021/12/07 07:44:59;;;;;;;9.35;0.98;;;5.20;99.90;;;;;;6215968;23;20079;-93
2021/12/07 07:47:26;;;;;;;2.80;0.85;;;5.20;99.90;;;;;;6216899;23;20024;-91
2021/12/07 07:49:57;;;;;;;6.03;0.68;;;5.20;99.90;;;;;;6217366;23;20028;-94
2021/12/07 07:52:48;;;;;;;4.78;0.98;;;5.20;99.90;;;;;;6218129;23;20025;-94
2021/12/07 07:55:18;;;;;;;6.40;1.10;;;5.20;99.90;;;;;;6194744;23;20555;-94
2021/12/07 07:57:46;;;;;;;2.95;0.60;;;5.20;99.90;;;;;;6220237;23;20021;-95
2021/12/07 08:00:18;;;;;;;7.03;0.82;;;5.20;99.90;;;;;;6222890;23;20012;-91
2021/12/07 08:02:46;;;;;;;4.97;1.30;;;5.20;99.90;;;;;;6221952;23;20009;-93
2021/12/07 08:05:16;;;;;;;4.65;0.90;;;5.20;99.90;;;;;;6195688;23;20033;-93
2021/12/07 08:07:47;;;;;;;5.10;0.88;;;5.20;99.90;;;;;;6193922;23;20021;-94
2021/12/07 08:10:21;;;;;;;3.92;1.05;;;5.20;99.90;;;;;;6222360;23;20016;-91
2021/12/07 08:13:05;;;;;;;5.38;1.58;;;5.20;99.90;;;;;;6219159;23;20406;-93
2021/12/07 08:15:44;;;;;;;5.13;0.90;;;5.20;99.90;;;;;;6219244;23;20057;-92
2021/12/07 08:18:24;;;;;;;5.00;1.13;;;5.20;99.90;;;;;;6220981;23;20016;-92
2021/12/07 08:21:08;;;;;;;5.20;1.45;;;5.20;99.90;;;;;;6220022;23;20067;-92
2021/12/07 08:23:43;;;;;;;7.13;1.30;;;5.20;99.90;;;;;;6195858;23;20021;-92
2021/12/07 08:26:18;;;;;;;5.68;1.20;;;5.20;99.90;;;;;;6193563;23;20024;-95
2021/12/07 08:29:00;;;;;;;4.07;0.63;;;5.20;99.90;;;;;;6217323;23;20030;-93
2021/12/07 08:31:47;;;;;;;8.23;0.75;;;5.20;99.90;;;;;;6193016;23;20020;-94
2021/12/07 08:34:36;;;;;;;13.48;2.75;;;5.30;99.90;;;;;;6209639;23;20027;-92
2021/12/07 08:37:14;;;;;;;6.95;1.35;;;5.30;99.90;;;;;;6219272;23;20515;-92
2021/12/07 08:40:10;;;;;;;12.52;1.75;;;5.40;99.90;;;;;;6201289;23;20016;-92
2021/12/07 08:42:55;;;;;;;4.10;1.00;;;5.40;99.90;;;;;;6224174;23;20016;-91
2021/12/07 08:45:57;;;;;;;6.25;0.93;;;5.50;99.90;;;;;;6202783;23;20025;-93
2021/12/07 08:48:58;;;;;;;4.22;1.08;;;5.50;99.90;;;;;;6217734;23;20021;-93
2021/12/07 08:51:25;;;;;;;4.30;1.38;;;5.50;99.90;;;;;;6192811;23;20024;-91
2021/12/07 08:54:16;;;;;;;4.93;0.95;;;5.50;99.90;;;;;;6195249;23;20119;-90
2021/12/07 08:59:45;;;;;;;8.43;1.10;;;5.50;99.90;;;;;;6220229;23;20087;-92
2021/12/07 09:02:16;;;;;;;5.72;0.80;;;5.50;99.90;;;;;;6218934;23;20019;-95
2021/12/07 09:04:46;;;;;;;8.45;1.35;;;5.50;99.90;;;;;;6194328;23;20385;-92
2021/12/07 09:07:37;;;;;;;6.80;1.23;;;5.60;99.90;;;;;;6218387;23;20055;-92
2021/12/07 09:10:07;;;;;;;5.30;0.85;;;5.60;99.90;;;;;;6217132;23;20436;-94
2021/12/07 09:12:41;;;;;;;11.75;2.45;;;5.70;99.90;;;;;;6217188;23;20025;-96
2021/12/07 09:15:12;;;;;;;8.82;0.98;;;5.70;99.90;;;;;;6217502;23;20482;-92
2021/12/07 09:17:41;;;;;;;15.27;2.28;;;5.80;99.90;;;;;;6192958;23;20048;-95
2021/12/07 09:20:29;;;;;;;2.97;0.65;;;5.90;99.90;;;;;;6217444;23;20016;-94
2021/12/07 09:23:22;;;;;;;5.25;0.73;;;5.90;99.90;;;;;;6193928;23;20071;-92
2021/12/07 09:26:00;;;;;;;7.60;1.40;;;5.90;99.90;;;;;;6219950;23;20080;-93
2021/12/07 09:28:30;;;;;;;3.72;1.02;;;5.90;99.90;;;;;;6220214;23;20017;-92
2021/12/07 09:31:22;;;;;;;8.82;1.25;;;5.90;99.90;;;;;;6220345;23;20012;-92
2021/12/07 09:33:50;;;;;;;10.75;1.15;;;5.90;99.90;;;;;;6221031;23;20083;-91
2021/12/07 09:36:17;;;;;;;3.78;1.25;;;6.10;99.90;;;;;;6219036;23;20119;-94
2021/12/07 09:38:44;;;;;;;6.43;1.70;;;6.10;99.90;;;;;;6195325;23;20090;-93
2021/12/07 09:41:13;;;;;;;8.80;1.50;;;6.20;99.90;;;;;;6221388;23;20531;-92
2021/12/07 09:43:46;;;;;;;4.68;1.50;;;6.10;99.90;;;;;;6197147;23;20039;-94
2021/12/07 09:46:29;;;;;;;7.50;1.48;;;6.20;99.90;;;;;;6219273;23;20036;-91
2021/12/07 09:49:13;;;;;;;4.93;1.05;;;6.30;99.90;;;;;;6194805;23;20028;-92
2021/12/07 09:51:59;;;;;;;4.65;0.95;;;6.30;99.90;;;;;;6217917;23;20095;-93
2021/12/07 09:54:35;;;;;;;6.70;0.80;;;6.30;99.90;;;;;;6196200;23;20449;-93
2021/12/07 09:57:21;;;;;;;4.03;1.40;;;6.30;99.90;;;;;;6221806;23;20017;-93
2021/12/07 09:59:49;;;;;;;5.20;0.93;;;6.30;99.90;;;;;;6220501;23;20023;-92
2021/12/07 10:02:19;;;;;;;6.78;0.82;;;6.20;99.90;;;;;;6194547;23;20020;-93
2021/12/07 10:04:47;;;;;;;12.98;0.75;;;6.10;99.90;;;;;;6216208;23;20040;-91
2021/12/07 10:07:14;;;;;;;2.80;0.80;;;6.10;99.90;;;;;;6215732;23;20040;-94
2021/12/07 10:09:48;;;;;;;4.97;0.80;;;6.20;99.90;;;;;;6215968;23;20048;-93
2021/12/07 10:12:27;;;;;;;1.65;0.77;;;6.20;99.90;;;;;;6215971;23;20048;-94
2021/12/07 10:14:54;;;;;;;9.07;0.93;;;6.20;99.90;;;;;;6214700;23;20027;-94
2021/12/07 10:17:27;;;;;;;12.27;1.38;;;6.20;98.90;;;;;;6215587;23;20020;-94
2021/12/07 10:19:54;;;;;;;6.97;0.90;;;6.10;99.80;;;;;;6215412;23;20044;-93
2021/12/07 10:22:40;;;;;;;11.65;1.80;;;6.20;99.90;;;;;;6219242;23;20020;-91
2021/12/07 10:29:08;;;;;;;9.57;1.00;;;6.20;99.90;;;;;;6218717;23;20356;-92
2021/12/07 10:31:47;;;;;;;6.40;1.35;;;6.20;96.20;;;;;;6197614;23;20025;-91
2021/12/07 10:34:20;;;;;;;5.55;1.20;;;6.20;97.30;;;;;;6221771;23;20040;-91
2021/12/07 10:36:56;;;;;;;9.73;0.68;;;6.20;98.40;;;;;;6221850;23;20025;-94
2021/12/07 10:39:41;;;;;;;6.80;0.75;;;6.20;98.70;;;;;;6221243;23;20044;-94
2021/12/07 10:42:24;;;;;;;4.10;1.08;;;6.20;99.90;;;;;;6220065;23;20467;-92
2021/12/07 10:45:04;;;;;;;6.03;1.30;;;6.20;98.20;;;;;;6219989;23;20017;-91
2021/12/07 10:47:41;;;;;;;9.10;0.67;;;6.20;97.60;;;;;;6221124;23;20051;-92
2021/12/07 10:50:23;;;;;;;3.47;1.02;;;6.20;97.50;;;;;;6214897;23;20348;-92
2021/12/07 10:56:34;;;;;;;5.10;0.80;;;6.30;97.00;;;;;;6221090;23;20067;-93
2021/12/07 10:59:04;;;;;;;11.55;0.70;;;6.30;97.50;;;;;;6219061;23;20040;-92
2021/12/07 11:01:46;;;;;;;7.22;0.82;;;6.30;98.80;;;;;;6221121;23;20016;-93
2021/12/07 11:04:33;;;;;;;6.35;1.15;;;6.30;99.30;;;;;;6218029;23;20436;-93
2021/12/07 11:07:20;;;;;;;5.45;1.38;;;6.30;99.40;;;;;;6216709;23;20024;-92
2021/12/07 11:10:24;;;;;;;3.28;0.52;;;6.30;98.70;;;;;;6218956;23;20027;-93
2021/12/07 11:13:38;;;;;;;3.33;0.57;;;6.30;99.90;;;;;;6207934;23;20100;-93
2021/12/07 11:16:31;;;;;;;;;;;6.40;99.90;;;;;;6215450;23;20516;-94
2021/12/07 11:19:35;;;;;;;4.13;0.70;;;6.40;99.90;;;;;;6190563;23;19919;-92
2021/12/07 11:22:21;;;;;;;5.90;0.60;;;6.40;99.90;;;;;;6192776;23;20044;-92
2021/12/07 11:25:14;;;;;;;5.28;0.75;;;6.50;99.90;;;;;;6192237;23;20079;-93
2021/12/07 11:30:51;;;;;;;9.45;0.60;;;6.40;99.50;;;;;;6216689;23;20020;-94
2021/12/07 11:33:23;;;;;;;3.83;0.95;;;6.50;99.90;;;;;;6217193;23;20013;-93
2021/12/07 11:35:54;;;;;;;4.47;1.30;;;6.50;99.80;;;;;;6216722;23;20074;-93
2021/12/07 11:38:37;;;;;;;8.77;0.60;;;6.60;99.30;;;;;;6216693;23;20027;-91
2021/12/07 11:41:52;;;;;;;2.20;1.45;;;6.50;99.90;;;;;;6215755;23;20047;-95
2021/12/07 11:45:25;;;;;;;8.20;1.25;;;6.60;99.30;;;;;;6197620;23;20499;-92
2021/12/07 11:47:56;;;;;;;5.45;1.23;;;6.70;99.80;;;;;;6216291;23;20020;-94
2021/12/07 11:50:55;;;;;;;3.30;1.00;;;6.60;99.90;;;;;;6218058;23;20013;-94
2021/12/07 11:53:29;;;;;;;4.38;0.80;;;6.60;99.60;;;;;;6191347;23;20016;-93
2021/12/07 11:55:57;;;;;;;7.07;1.10;;;6.70;99.70;;;;;;6215816;23;20016;-91
2021/12/07 11:58:27;;;;;;;9.38;3.10;;;6.70;99.80;;;;;;6216332;23;20023;-92
2021/12/07 12:01:05;;;;;;;8.88;2.35;;;6.60;99.90;;;;;;6217747;23;20012;-92
2021/12/07 12:03:33;;;;;;;5.32;1.42;;;6.60;99.90;;;;;;6216755;23;20318;-94
2021/12/07 12:06:03;;;;;;;8.43;1.40;;;6.70;99.90;;;;;;6216390;23;20111;-92
2021/12/07 12:09:05;;;;;;;9.45;2.17;;;6.60;99.90;;;;;;6192720;23;20024;-91
2021/12/07 12:12:32;;;;;;;8.80;2.00;;;6.70;99.90;;;;;;6216962;23;20036;-92
2021/12/07 12:15:15;;;;;;;9.90;1.40;;;6.80;99.90;;;;;;6216991;23;20021;-94
2021/12/07 12:17:45;;;;;;;;;;;6.80;99.90;;;;;;6216277;23;20344;-95
2021/12/07 12:20:56;;;;;;;12.02;2.00;;;6.80;99.90;;;;;;6193000;23;20255;-91
2021/12/07 12:24:17;;;;;;;;;;;;;;;;;;;;;
2021/12/07 12:27:31;;;;;;;8.82;1.63;;;6.70;99.90;;;;;;6197353;23;20674;-93
2021/12/07 12:30:01;;;;;;;6.97;1.33;;;6.70;99.90;;;;;;6216338;23;20021;-93
2021/12/07 12:32:57;;;;;;;9.07;1.38;;;6.70;99.90;;;;;;6216546;23;20040;-94
2021/12/07 12:35:34;;;;;;;9.95;1.88;;;6.70;99.90;;;;;;6192085;23;20024;-92
2021/12/07 12:38:48;;;;;;;7.57;1.38;;;6.70;99.90;;;;;;6216113;23;20012;-92
2021/12/07 12:41:27;;;;;;;12.00;1.25;;;6.70;99.90;;;;;;6192140;23;20356;-94
2021/12/07 12:44:05;;;;;;;5.05;1.23;;;6.70;99.90;;;;;;6216179;23;20016;-93
2021/12/07 12:46:33;;;;;;;5.35;1.42;;;6.70;99.90;;;;;;6191384;23;20021;-94
2021/12/07 12:49:07;;;;;;;6.47;0.85;;;6.70;99.90;;;;;;6216752;23;20017;-94
2021/12/07 12:51:50;;;;;;;4.43;1.08;;;6.60;99.90;;;;;;6216085;23;20027;-93
2021/12/07 12:54:23;;;;;;;4.93;1.20;;;6.60;99.90;;;;;;6216621;23;20024;-95
2021/12/07 12:57:08;;;;;;;18.40;1.90;;;6.60;99.90;;;;;;6215808;23;20091;-93
2021/12/07 12:59:43;;;;;;;8.27;1.35;;;6.60;99.90;;;;;;6216134;23;20043;-95
2021/12/07 13:02:18;;;;;;;11.27;2.00;;;6.60;99.90;;;;;;6215843;23;20352;-91
2021/12/07 13:05:05;;;;;;;6.35;1.13;;;6.60;99.90;;;;;;6216005;23;20012;-92
2021/12/07 13:07:36;;;;;;;8.35;1.90;;;6.60;99.90;;;;;;6215519;23;20031;-95
2021/12/07 13:10:09;;;;;;;7.55;1.50;;;6.60;99.90;;;;;;6217071;23;20722;-93
2021/12/07 13:12:38;;;;;;;8.30;2.13;;;6.60;99.90;;;;;;6216696;23;20038;-94
2021/12/07 13:15:11;;;;;;;9.23;1.23;;;6.60;99.90;;;;;;6216957;23;20076;-93
2021/12/07 13:18:13;;;;;;;;;;;;;;;;;;;;;
2021/12/07 13:20:55;;;;;;;10.38;2.28;;;6.60;99.90;;;;;;6217025;23;20012;-94
2021/12/07 13:23:31;;;;;;;8.05;1.17;;;6.50;99.90;;;;;;6191637;23;20107;-92
2021/12/07 13:26:01;;;;;;;8.63;2.28;;;6.50;99.90;;;;;;6216720;23;20079;-91
2021/12/07 13:28:32;;;;;;;10.05;1.88;;;6.40;99.90;;;;;;6191280;23;20127;-92
2021/12/07 13:31:20;;;;;;;8.27;1.98;;;6.40;99.90;;;;;;6215995;23;20468;-93
2021/12/07 13:33:55;;;;;;;4.90;1.33;;;6.40;99.90;;;;;;6215918;23;20044;-92
2021/12/07 13:36:28;;;;;;;8.43;1.50;;;6.30;99.90;;;;;;6215919;23;20020;-92
2021/12/07 13:39:05;;;;;;;8.68;1.70;;;6.30;99.90;;;;;;6215687;23;20012;-93
2021/12/07 13:45:51;;;;;;;9.90;1.92;;;6.30;99.90;;;;;;6213428;23;20472;-94
2021/12/07 13:48:20;;;;;;;11.32;2.53;;;6.30;99.90;;;;;;6215229;23;20017;-93
2021/12/07 13:50:54;;;;;;;4.57;1.63;;;6.30;99.90;;;;;;6215398;23;20467;-94
2021/12/07 13:53:26;;;;;;;;;;;6.30;99.90;;;;;;6192124;23;20079;-93
2021/12/07 13:56:21;;;;;;;8.00;1.60;;;6.30;99.90;;;;;;6215519;23;19916;-93
2021/12/07 14:00:15;;;;;;;3.92;1.65;;;6.30;99.90;;;;;;6214042;23;20032;-92
2021/12/07 14:03:22;;;;;;;6.85;1.65;;;6.30;99.90;;;;;;6215413;23;20531;-95
2021/12/07 14:09:22;;;;;;;6.05;1.60;;;6.30;99.90;;;;;;6208648;23;20016;-93
2021/12/07 14:12:01;;;;;;;6.68;1.73;;;6.30;99.90;;;;;;6216624;23;20013;-95
2021/12/07 14:14:55;;;;;;;6.93;2.08;;;6.30;99.90;;;;;;6192868;23;20388;-94
2021/12/07 14:17:46;;;;;;;8.50;1.60;;;6.20;99.90;;;;;;6217013;23;20021;-96
2021/12/07 14:20:31;;;;;;;6.10;1.80;;;6.20;99.90;;;;;;6216578;23;20094;-94
2021/12/07 14:27:22;;;;;;;10.60;2.38;;;6.10;99.90;;;;;;6154681;23;20041;-93
2021/12/07 15:12:42;;;;;;;10.05;3.55;;;5.70;99.90;;;;;;6229944;22;20099;-94
2021/12/07 15:15:27;;;;;;;10.25;2.50;;;5.70;99.90;;;;;;6255838;23;20024;-94
2021/12/07 16:26:23;;;;;;;7.57;2.97;;;5.30;99.90;;;;;;5850376;22;9298600;-93
2021/12/07 16:46:48;;;;;;;5.55;2.55;;;5.10;99.90;;;;;;6191831;23;20103;-94
2021/12/07 16:49:21;;;;;;;7.15;1.40;;;5.10;99.90;;;;;;6167313;23;20445;-93
2021/12/07 17:12:00;;;;;;;;;;;;;;;;;;;;;
2021/12/07 17:14:36;;;;;;;8.35;3.00;;;5.00;99.90;;;;;;6222967;23;20087;-94
2021/12/07 17:28:52;;;;;;;;;;;;;;;;;;;;;
2021/12/07 17:32:03;;;;;;;5.15;1.75;;;5.20;99.90;;;;;;6050316;23;20382;-94
2021/12/07 17:35:10;;;;;;;12.10;2.05;;;5.20;99.90;;;;;;6166067;23;20035;-93
2021/12/07 17:38:00;;;;;;;9.13;2.35;;;5.30;99.90;;;;;;6051742;23;20027;-93
2021/12/07 17:40:54;;;;;;;9.27;2.00;;;5.20;99.90;;;;;;6071810;23;20073;-94
2021/12/07 17:43:41;;;;;;;9.07;2.22;;;5.20;99.90;;;;;;6071665;23;20097;-93
2021/12/07 17:47:09;;;;;;;6.75;2.40;;;5.10;99.90;;;;;;6078879;23;20022;-93
2021/12/07 17:49:54;;;;;;;8.98;1.88;;;5.20;99.90;;;;;;6049872;23;20023;-93
2021/12/07 17:52:47;;;;;;;6.72;1.90;;;5.20;99.90;;;;;;6071399;23;20023;-93
2021/12/07 17:56:07;;;;;;;6.75;2.33;;;5.20;99.90;;;;;;6071937;23;20018;-93
2021/12/07 17:58:57;;;;;;;9.70;2.50;;;5.20;99.90;;;;;;6074427;23;20097;-94
2021/12/07 18:05:58;;;;;;;12.77;2.30;;;5.20;99.90;;;;;;6072847;23;20101;-94
2021/12/07 18:08:59;;;;;;;6.55;2.20;;;5.10;99.90;;;;;;6110612;23;20515;-92
2021/12/07 18:14:55;;;;;;;5.18;1.63;;;5.10;99.90;;;;;;6119407;23;20020;-93
2021/12/07 18:17:39;;;;;;;7.50;2.90;;;5.10;99.90;;;;;;6193051;23;20020;-93
2021/12/07 18:20:27;;;;;;;10.73;2.53;;;5.10;99.90;;;;;;6190384;23;20020;-93
2021/12/07 18:23:07;;;;;;;6.18;2.17;;;5.10;99.90;;;;;;6191744;23;20008;-90
2021/12/07 18:25:47;;;;;;;5.45;2.03;;;5.00;99.90;;;;;;6169259;23;20051;-92
2021/12/07 18:28:19;;;;;;;3.45;1.98;;;5.00;99.90;;;;;;6190979;23;20021;-92
2021/12/07 18:40:21;;;;;;;5.13;1.73;;;5.10;99.90;;;;;;6098014;23;20415;-93
2021/12/07 18:42:51;;;;;;;5.38;2.22;;;5.10;99.90;;;;;;6095907;23;20024;-93
2021/12/07 18:45:29;;;;;;;6.40;1.70;;;5.10;99.90;;;;;;6112449;23;20013;-93
2021/12/07 19:01:19;;;;;;;6.57;2.13;;;4.80;99.90;;;;;;6120782;23;20092;-93
2021/12/07 19:07:52;;;;;;;6.90;2.00;;;5.00;99.90;;;;;;6166884;23;20028;-93
2021/12/07 19:10:36;;;;;;;5.03;2.40;;;5.00;99.90;;;;;;6168214;23;20021;-93
2021/12/07 19:13:17;;;;;;;10.00;2.22;;;5.00;99.90;;;;;;6216508;23;20012;-93
2021/12/07 19:15:50;;;;;;;6.60;2.05;;;5.00;99.90;;;;;;6190789;23;20381;-93